Hauptseite
METAR-TAF:

METAR-TAF

Flughäfen :

Flughafen Genua

Genua, Italien

Breite: 44-25N, Länge: 008-51E, Höhe: 2 m

Beobachtung

Neuester Wetterbericht von vor 18 Minuten, um 18:20 UTC
Wind 5 kt aus Nord/Nordost
Temperatur 16°C
Luftfeuchtigkeit 94%
Luftdruck 1026 hPa
Sichtweite 10 km oder mehr
Leicht bewölkt in der Höhe von 800 ft
Aufgelockert bewölkt in der Höhe von 1200 ft
Durchbrochene Bewölkung in der Höhe von 1800 ft
Leichtregen

METAR: LIMJ 121820Z 03005KT 9999 -RA FEW008 SCT012 BKN018 16/15 Q1026

Zeit: 19:38 (18:38 UTC)

Prognose

Neuester Wetterbericht von vor 1 Stunde und 38 Minuten, um 17:00 UTC
Gültige Prognose vom 12 um 18 UTC bis 13 um 18 UTC
Wind 7 kt aus Ost/Südost
Sichtweite 10 km oder mehr
Durchbrochene Bewölkung in der Höhe von 2000 ft
Zeitweise
vom 12 um 18 UTC bis 13 um 10 UTC
Regenschauer

TAF: LIMJ 121700Z 1218/1318 12007KT 9999 BKN020 TEMPO 1218/1310 SHRA

Wetterbeobachtungen und Prognosen von mehr als 4000 Flughäfen (METAR und TAF Bericht).

Die verfügbaren Stationen werden durch gelbe und rote Markierungen auf der Karte dargestellt.

Führen Sie die Maus auf sie, um den Namen der Station zu sehen.

Darauf klicken, um die Beobachtung von Wetterbeobachtungen und Prognosen zu sehen.

Um die Karte zu ändern : klicken Sie auf den grünen Tasten mit einem schwarzen Kreuz Zum Vergrößern, auf den grünen Button mit einem Gedankenstrich zu verkleinern, oder auf die grünen Pfeile für benachbarte Karten.


METAR-TAF: